sensor_id;sensor_type;location;lat;lon;timestamp;P1;durP1;ratioP1;P2;durP2;ratioP2
15398;SDS011;7797;51.428;6.756;2024-03-07T00:00:07;35.43;;;21.10;;
15398;SDS011;7797;51.428;6.756;2024-03-07T00:02:45;36.53;;;20.70;;
15398;SDS011;7797;51.428;6.756;2024-03-07T00:05:17;35.73;;;21.03;;
15398;SDS011;7797;51.428;6.756;2024-03-07T00:07:48;34.60;;;20.73;;
15398;SDS011;7797;51.428;6.756;2024-03-07T00:10:15;40.50;;;21.97;;
15398;SDS011;7797;51.428;6.756;2024-03-07T00:12:43;37.20;;;21.77;;
15398;SDS011;7797;51.428;6.756;2024-03-07T00:15:11;33.20;;;21.73;;
15398;SDS011;7797;51.428;6.756;2024-03-07T00:17:39;34.37;;;21.27;;
15398;SDS011;7797;51.428;6.756;2024-03-07T00:20:07;35.10;;;21.70;;
15398;SDS011;7797;51.428;6.756;2024-03-07T00:22:36;34.73;;;20.20;;
15398;SDS011;7797;51.428;6.756;2024-03-07T00:25:03;34.03;;;20.83;;
15398;SDS011;7797;51.428;6.756;2024-03-07T00:27:32;38.53;;;21.57;;
15398;SDS011;7797;51.428;6.756;2024-03-07T00:29:59;37.40;;;21.57;;
15398;SDS011;7797;51.428;6.756;2024-03-07T00:32:26;31.77;;;20.83;;
15398;SDS011;7797;51.428;6.756;2024-03-07T00:34:56;34.87;;;21.17;;
15398;SDS011;7797;51.428;6.756;2024-03-07T00:37:23;32.50;;;20.90;;
15398;SDS011;7797;51.428;6.756;2024-03-07T00:39:53;31.47;;;20.80;;
15398;SDS011;7797;51.428;6.756;2024-03-07T00:42:20;36.90;;;21.77;;
15398;SDS011;7797;51.428;6.756;2024-03-07T00:44:48;34.83;;;20.30;;
15398;SDS011;7797;51.428;6.756;2024-03-07T00:47:18;39.47;;;21.50;;
15398;SDS011;7797;51.428;6.756;2024-03-07T00:49:45;35.43;;;20.63;;
15398;SDS011;7797;51.428;6.756;2024-03-07T00:52:15;37.50;;;21.47;;
15398;SDS011;7797;51.428;6.756;2024-03-07T00:54:42;31.77;;;20.90;;
15398;SDS011;7797;51.428;6.756;2024-03-07T00:57:09;35.70;;;22.37;;
15398;SDS011;7797;51.428;6.756;2024-03-07T00:59:36;35.80;;;21.93;;
15398;SDS011;7797;51.428;6.756;2024-03-07T01:02:03;34.00;;;20.80;;
15398;SDS011;7797;51.428;6.756;2024-03-07T01:04:30;37.53;;;21.87;;
15398;SDS011;7797;51.428;6.756;2024-03-07T01:07:00;36.27;;;20.73;;
15398;SDS011;7797;51.428;6.756;2024-03-07T01:09:27;32.30;;;21.27;;
15398;SDS011;7797;51.428;6.756;2024-03-07T01:11:55;35.33;;;20.43;;
15398;SDS011;7797;51.428;6.756;2024-03-07T01:14:22;34.17;;;21.93;;
15398;SDS011;7797;51.428;6.756;2024-03-07T01:16:50;32.57;;;20.47;;
15398;SDS011;7797;51.428;6.756;2024-03-07T01:19:16;35.27;;;21.23;;
15398;SDS011;7797;51.428;6.756;2024-03-07T01:21:44;33.53;;;20.70;;
15398;SDS011;7797;51.428;6.756;2024-03-07T01:24:10;33.47;;;20.93;;
15398;SDS011;7797;51.428;6.756;2024-03-07T01:26:37;37.30;;;21.40;;
15398;SDS011;7797;51.428;6.756;2024-03-07T01:29:04;31.40;;;20.57;;
15398;SDS011;7797;51.428;6.756;2024-03-07T01:31:33;32.23;;;20.33;;
15398;SDS011;7797;51.428;6.756;2024-03-07T01:34:00;36.10;;;21.10;;
15398;SDS011;7797;51.428;6.756;2024-03-07T01:36:27;36.37;;;21.07;;
15398;SDS011;7797;51.428;6.756;2024-03-07T01:38:54;38.50;;;21.87;;
15398;SDS011;7797;51.428;6.756;2024-03-07T01:41:21;37.00;;;21.40;;
15398;SDS011;7797;51.428;6.756;2024-03-07T01:43:48;35.43;;;20.97;;
15398;SDS011;7797;51.428;6.756;2024-03-07T01:46:15;37.63;;;20.70;;
15398;SDS011;7797;51.428;6.756;2024-03-07T01:48:42;33.40;;;21.17;;
15398;SDS011;7797;51.428;6.756;2024-03-07T01:51:09;36.70;;;21.53;;
15398;SDS011;7797;51.428;6.756;2024-03-07T01:53:37;38.40;;;21.27;;
15398;SDS011;7797;51.428;6.756;2024-03-07T01:56:03;36.50;;;20.93;;
15398;SDS011;7797;51.428;6.756;2024-03-07T01:58:31;39.20;;;21.37;;
15398;SDS011;7797;51.428;6.756;2024-03-07T02:00:59;34.37;;;21.27;;
15398;SDS011;7797;51.428;6.756;2024-03-07T02:03:26;37.10;;;21.77;;
15398;SDS011;7797;51.428;6.756;2024-03-07T02:05:53;36.10;;;20.90;;
15398;SDS011;7797;51.428;6.756;2024-03-07T02:08:20;38.87;;;21.23;;
15398;SDS011;7797;51.428;6.756;2024-03-07T02:10:47;39.13;;;20.90;;
15398;SDS011;7797;51.428;6.756;2024-03-07T02:13:15;36.10;;;21.87;;
15398;SDS011;7797;51.428;6.756;2024-03-07T02:15:42;33.10;;;20.63;;
15398;SDS011;7797;51.428;6.756;2024-03-07T02:18:09;34.60;;;19.73;;
15398;SDS011;7797;51.428;6.756;2024-03-07T02:20:37;33.00;;;20.40;;
15398;SDS011;7797;51.428;6.756;2024-03-07T02:23:04;33.27;;;20.07;;
15398;SDS011;7797;51.428;6.756;2024-03-07T02:25:31;35.40;;;21.23;;
15398;SDS011;7797;51.428;6.756;2024-03-07T02:27:58;35.43;;;21.23;;
15398;SDS011;7797;51.428;6.756;2024-03-07T02:30:25;37.30;;;21.40;;
15398;SDS011;7797;51.428;6.756;2024-03-07T02:32:52;32.40;;;20.87;;
15398;SDS011;7797;51.428;6.756;2024-03-07T02:35:22;33.57;;;21.60;;
15398;SDS011;7797;51.428;6.756;2024-03-07T02:37:50;33.93;;;21.33;;
15398;SDS011;7797;51.428;6.756;2024-03-07T02:40:17;32.33;;;20.97;;
15398;SDS011;7797;51.428;6.756;2024-03-07T02:42:44;40.23;;;21.53;;
15398;SDS011;7797;51.428;6.756;2024-03-07T02:45:11;32.10;;;20.43;;
15398;SDS011;7797;51.428;6.756;2024-03-07T02:47:41;35.47;;;20.60;;
15398;SDS011;7797;51.428;6.756;2024-03-07T02:50:09;34.77;;;20.77;;
15398;SDS011;7797;51.428;6.756;2024-03-07T02:52:37;37.27;;;21.23;;
15398;SDS011;7797;51.428;6.756;2024-03-07T02:55:03;33.30;;;21.00;;
15398;SDS011;7797;51.428;6.756;2024-03-07T02:57:31;33.40;;;20.13;;
15398;SDS011;7797;51.428;6.756;2024-03-07T02:59:58;38.00;;;21.27;;
15398;SDS011;7797;51.428;6.756;2024-03-07T03:02:25;31.73;;;20.60;;
15398;SDS011;7797;51.428;6.756;2024-03-07T03:04:52;38.43;;;20.30;;
15398;SDS011;7797;51.428;6.756;2024-03-07T03:07:20;32.37;;;20.47;;
15398;SDS011;7797;51.428;6.756;2024-03-07T03:09:47;34.40;;;20.80;;
15398;SDS011;7797;51.428;6.756;2024-03-07T03:12:15;37.47;;;20.43;;
15398;SDS011;7797;51.428;6.756;2024-03-07T03:14:42;32.90;;;20.57;;
15398;SDS011;7797;51.428;6.756;2024-03-07T03:17:09;33.73;;;20.23;;
15398;SDS011;7797;51.428;6.756;2024-03-07T03:19:37;33.40;;;20.23;;
15398;SDS011;7797;51.428;6.756;2024-03-07T03:22:04;32.40;;;20.30;;
15398;SDS011;7797;51.428;6.756;2024-03-07T03:24:31;32.97;;;20.23;;
15398;SDS011;7797;51.428;6.756;2024-03-07T03:26:58;33.60;;;20.40;;
15398;SDS011;7797;51.428;6.756;2024-03-07T03:29:25;35.17;;;21.17;;
15398;SDS011;7797;51.428;6.756;2024-03-07T03:31:55;36.27;;;20.60;;
15398;SDS011;7797;51.428;6.756;2024-03-07T03:34:23;31.73;;;20.40;;
15398;SDS011;7797;51.428;6.756;2024-03-07T03:36:49;32.93;;;20.40;;
15398;SDS011;7797;51.428;6.756;2024-03-07T03:39:16;31.07;;;19.80;;
15398;SDS011;7797;51.428;6.756;2024-03-07T03:41:43;34.23;;;21.23;;
15398;SDS011;7797;51.428;6.756;2024-03-07T03:44:10;32.83;;;19.67;;
15398;SDS011;7797;51.428;6.756;2024-03-07T03:46:38;36.30;;;20.60;;
15398;SDS011;7797;51.428;6.756;2024-03-07T03:49:04;34.63;;;20.13;;
15398;SDS011;7797;51.428;6.756;2024-03-07T03:51:32;36.30;;;21.50;;
15398;SDS011;7797;51.428;6.756;2024-03-07T03:53:59;30.90;;;20.30;;
15398;SDS011;7797;51.428;6.756;2024-03-07T03:56:26;36.70;;;20.93;;
15398;SDS011;7797;51.428;6.756;2024-03-07T03:58:53;33.40;;;20.27;;
15398;SDS011;7797;51.428;6.756;2024-03-07T04:01:19;32.67;;;19.83;;
15398;SDS011;7797;51.428;6.756;2024-03-07T04:03:46;32.47;;;20.17;;
15398;SDS011;7797;51.428;6.756;2024-03-07T04:06:14;31.73;;;19.40;;
15398;SDS011;7797;51.428;6.756;2024-03-07T04:08:41;35.10;;;21.57;;
15398;SDS011;7797;51.428;6.756;2024-03-07T04:11:08;32.73;;;20.80;;
15398;SDS011;7797;51.428;6.756;2024-03-07T04:13:36;33.83;;;21.07;;
15398;SDS011;7797;51.428;6.756;2024-03-07T04:16:04;29.57;;;20.13;;
15398;SDS011;7797;51.428;6.756;2024-03-07T04:18:31;33.00;;;20.17;;
15398;SDS011;7797;51.428;6.756;2024-03-07T04:20:59;30.97;;;20.40;;
15398;SDS011;7797;51.428;6.756;2024-03-07T04:23:26;30.03;;;19.80;;
15398;SDS011;7797;51.428;6.756;2024-03-07T04:25:54;31.97;;;20.23;;
15398;SDS011;7797;51.428;6.756;2024-03-07T04:28:22;32.13;;;20.27;;
15398;SDS011;7797;51.428;6.756;2024-03-07T04:30:49;34.20;;;20.83;;
15398;SDS011;7797;51.428;6.756;2024-03-07T04:33:16;33.07;;;20.90;;
15398;SDS011;7797;51.428;6.756;2024-03-07T04:35:43;35.30;;;20.43;;
15398;SDS011;7797;51.428;6.756;2024-03-07T04:38:10;33.80;;;19.87;;
15398;SDS011;7797;51.428;6.756;2024-03-07T04:40:42;32.03;;;20.53;;
15398;SDS011;7797;51.428;6.756;2024-03-07T04:43:08;32.53;;;20.67;;
15398;SDS011;7797;51.428;6.756;2024-03-07T04:45:35;32.87;;;20.83;;
15398;SDS011;7797;51.428;6.756;2024-03-07T04:48:02;28.93;;;19.23;;
15398;SDS011;7797;51.428;6.756;2024-03-07T04:50:30;30.57;;;19.20;;
15398;SDS011;7797;51.428;6.756;2024-03-07T04:52:57;34.63;;;20.00;;
15398;SDS011;7797;51.428;6.756;2024-03-07T04:55:24;32.77;;;20.43;;
15398;SDS011;7797;51.428;6.756;2024-03-07T04:57:51;31.93;;;20.33;;
15398;SDS011;7797;51.428;6.756;2024-03-07T05:00:18;29.63;;;18.90;;
15398;SDS011;7797;51.428;6.756;2024-03-07T05:02:47;28.60;;;18.97;;
15398;SDS011;7797;51.428;6.756;2024-03-07T05:05:17;31.93;;;19.60;;
15398;SDS011;7797;51.428;6.756;2024-03-07T05:07:49;31.17;;;19.90;;
15398;SDS011;7797;51.428;6.756;2024-03-07T05:10:17;35.37;;;19.83;;
15398;SDS011;7797;51.428;6.756;2024-03-07T05:12:44;29.70;;;19.07;;
15398;SDS011;7797;51.428;6.756;2024-03-07T05:15:11;33.60;;;19.87;;
15398;SDS011;7797;51.428;6.756;2024-03-07T05:17:38;34.43;;;20.00;;
15398;SDS011;7797;51.428;6.756;2024-03-07T05:20:06;28.40;;;18.70;;
15398;SDS011;7797;51.428;6.756;2024-03-07T05:22:40;31.93;;;19.30;;
15398;SDS011;7797;51.428;6.756;2024-03-07T05:25:11;33.40;;;19.20;;
15398;SDS011;7797;51.428;6.756;2024-03-07T05:27:38;30.67;;;18.63;;
15398;SDS011;7797;51.428;6.756;2024-03-07T05:30:05;28.93;;;19.20;;
15398;SDS011;7797;51.428;6.756;2024-03-07T05:32:36;33.13;;;20.60;;
15398;SDS011;7797;51.428;6.756;2024-03-07T05:35:03;29.90;;;18.80;;
15398;SDS011;7797;51.428;6.756;2024-03-07T05:37:30;29.63;;;18.87;;
15398;SDS011;7797;51.428;6.756;2024-03-07T05:39:58;31.17;;;19.60;;
15398;SDS011;7797;51.428;6.756;2024-03-07T05:42:26;30.93;;;19.43;;
15398;SDS011;7797;51.428;6.756;2024-03-07T05:44:53;31.13;;;19.80;;
15398;SDS011;7797;51.428;6.756;2024-03-07T05:47:21;27.13;;;18.07;;
15398;SDS011;7797;51.428;6.756;2024-03-07T05:49:48;29.83;;;18.83;;
15398;SDS011;7797;51.428;6.756;2024-03-07T05:52:15;28.77;;;18.30;;
15398;SDS011;7797;51.428;6.756;2024-03-07T05:54:42;27.33;;;18.27;;
15398;SDS011;7797;51.428;6.756;2024-03-07T05:57:15;28.37;;;18.97;;
15398;SDS011;7797;51.428;6.756;2024-03-07T05:59:42;27.43;;;18.20;;
15398;SDS011;7797;51.428;6.756;2024-03-07T06:02:09;27.87;;;18.97;;
15398;SDS011;7797;51.428;6.756;2024-03-07T06:04:39;26.67;;;18.33;;
15398;SDS011;7797;51.428;6.756;2024-03-07T06:07:05;25.10;;;17.00;;
15398;SDS011;7797;51.428;6.756;2024-03-07T06:09:32;25.40;;;16.87;;
15398;SDS011;7797;51.428;6.756;2024-03-07T06:11:59;28.13;;;18.07;;
15398;SDS011;7797;51.428;6.756;2024-03-07T06:14:35;29.30;;;17.50;;
15398;SDS011;7797;51.428;6.756;2024-03-07T06:17:02;25.30;;;16.93;;
15398;SDS011;7797;51.428;6.756;2024-03-07T06:19:28;26.27;;;18.03;;
15398;SDS011;7797;51.428;6.756;2024-03-07T06:21:57;27.77;;;17.80;;
15398;SDS011;7797;51.428;6.756;2024-03-07T06:24:24;28.10;;;18.23;;
15398;SDS011;7797;51.428;6.756;2024-03-07T06:26:53;28.40;;;17.90;;
15398;SDS011;7797;51.428;6.756;2024-03-07T06:29:26;27.87;;;17.30;;
15398;SDS011;7797;51.428;6.756;2024-03-07T06:31:54;27.00;;;17.73;;
15398;SDS011;7797;51.428;6.756;2024-03-07T06:34:23;28.50;;;17.40;;
15398;SDS011;7797;51.428;6.756;2024-03-07T06:36:50;27.63;;;17.83;;
15398;SDS011;7797;51.428;6.756;2024-03-07T06:39:21;26.70;;;17.43;;
15398;SDS011;7797;51.428;6.756;2024-03-07T06:41:48;24.10;;;16.80;;
15398;SDS011;7797;51.428;6.756;2024-03-07T06:44:15;26.77;;;18.17;;
15398;SDS011;7797;51.428;6.756;2024-03-07T06:46:46;26.60;;;17.80;;
15398;SDS011;7797;51.428;6.756;2024-03-07T06:49:13;25.37;;;16.67;;
15398;SDS011;7797;51.428;6.756;2024-03-07T06:51:39;24.27;;;16.43;;
15398;SDS011;7797;51.428;6.756;2024-03-07T06:54:06;30.57;;;17.53;;
15398;SDS011;7797;51.428;6.756;2024-03-07T06:56:33;28.80;;;17.37;;
15398;SDS011;7797;51.428;6.756;2024-03-07T06:59:00;26.30;;;16.67;;
15398;SDS011;7797;51.428;6.756;2024-03-07T07:01:31;26.23;;;17.30;;
15398;SDS011;7797;51.428;6.756;2024-03-07T07:03:58;28.07;;;18.20;;
15398;SDS011;7797;51.428;6.756;2024-03-07T07:06:25;23.73;;;17.13;;
15398;SDS011;7797;51.428;6.756;2024-03-07T07:08:52;25.50;;;17.07;;
15398;SDS011;7797;51.428;6.756;2024-03-07T07:11:19;27.73;;;17.10;;
15398;SDS011;7797;51.428;6.756;2024-03-07T07:13:46;26.17;;;17.87;;
15398;SDS011;7797;51.428;6.756;2024-03-07T07:16:13;25.07;;;17.53;;
15398;SDS011;7797;51.428;6.756;2024-03-07T07:18:40;28.60;;;17.60;;
15398;SDS011;7797;51.428;6.756;2024-03-07T07:21:07;26.53;;;17.70;;
15398;SDS011;7797;51.428;6.756;2024-03-07T07:23:37;24.43;;;17.33;;
15398;SDS011;7797;51.428;6.756;2024-03-07T07:26:05;23.90;;;16.33;;
15398;SDS011;7797;51.428;6.756;2024-03-07T07:28:37;26.60;;;17.63;;
15398;SDS011;7797;51.428;6.756;2024-03-07T07:31:04;23.30;;;16.70;;
15398;SDS011;7797;51.428;6.756;2024-03-07T07:33:40;22.77;;;16.93;;
15398;SDS011;7797;51.428;6.756;2024-03-07T07:36:27;24.57;;;17.40;;
15398;SDS011;7797;51.428;6.756;2024-03-07T07:38:56;25.77;;;16.93;;
15398;SDS011;7797;51.428;6.756;2024-03-07T07:41:24;24.03;;;17.23;;
15398;SDS011;7797;51.428;6.756;2024-03-07T07:43:51;28.10;;;18.30;;
15398;SDS011;7797;51.428;6.756;2024-03-07T07:46:18;28.10;;;17.57;;
15398;SDS011;7797;51.428;6.756;2024-03-07T07:48:46;27.40;;;17.90;;
15398;SDS011;7797;51.428;6.756;2024-03-07T07:51:13;27.70;;;18.27;;
15398;SDS011;7797;51.428;6.756;2024-03-07T07:53:40;25.00;;;17.03;;
15398;SDS011;7797;51.428;6.756;2024-03-07T07:56:07;30.87;;;18.77;;
15398;SDS011;7797;51.428;6.756;2024-03-07T07:58:34;26.67;;;18.17;;
15398;SDS011;7797;51.428;6.756;2024-03-07T08:01:01;28.30;;;18.03;;
15398;SDS011;7797;51.428;6.756;2024-03-07T08:03:29;24.67;;;17.37;;
15398;SDS011;7797;51.428;6.756;2024-03-07T08:05:56;28.97;;;17.47;;
15398;SDS011;7797;51.428;6.756;2024-03-07T08:08:23;26.37;;;17.97;;
15398;SDS011;7797;51.428;6.756;2024-03-07T08:10:51;26.13;;;17.40;;
15398;SDS011;7797;51.428;6.756;2024-03-07T08:13:18;26.17;;;17.67;;
15398;SDS011;7797;51.428;6.756;2024-03-07T08:15:45;23.63;;;16.83;;
15398;SDS011;7797;51.428;6.756;2024-03-07T08:18:11;28.07;;;17.57;;
15398;SDS011;7797;51.428;6.756;2024-03-07T08:20:39;23.80;;;17.07;;
15398;SDS011;7797;51.428;6.756;2024-03-07T08:23:08;22.30;;;16.70;;
15398;SDS011;7797;51.428;6.756;2024-03-07T08:25:36;22.40;;;15.47;;
15398;SDS011;7797;51.428;6.756;2024-03-07T08:28:03;24.47;;;16.27;;
15398;SDS011;7797;51.428;6.756;2024-03-07T08:30:31;25.60;;;17.67;;
15398;SDS011;7797;51.428;6.756;2024-03-07T08:32:58;26.07;;;17.20;;
15398;SDS011;7797;51.428;6.756;2024-03-07T08:35:28;23.50;;;16.70;;
15398;SDS011;7797;51.428;6.756;2024-03-07T08:37:56;24.77;;;16.73;;
15398;SDS011;7797;51.428;6.756;2024-03-07T08:40:25;28.00;;;16.77;;
15398;SDS011;7797;51.428;6.756;2024-03-07T08:42:55;25.93;;;16.00;;
15398;SDS011;7797;51.428;6.756;2024-03-07T08:45:24;25.03;;;16.27;;
15398;SDS011;7797;51.428;6.756;2024-03-07T08:47:55;26.03;;;17.03;;
15398;SDS011;7797;51.428;6.756;2024-03-07T08:50:25;25.27;;;16.27;;
15398;SDS011;7797;51.428;6.756;2024-03-07T08:52:53;24.90;;;16.47;;
15398;SDS011;7797;51.428;6.756;2024-03-07T08:55:21;21.50;;;15.63;;
15398;SDS011;7797;51.428;6.756;2024-03-07T08:57:49;24.47;;;16.37;;
15398;SDS011;7797;51.428;6.756;2024-03-07T09:00:16;23.00;;;15.90;;
15398;SDS011;7797;51.428;6.756;2024-03-07T09:02:53;22.83;;;14.50;;
15398;SDS011;7797;51.428;6.756;2024-03-07T09:05:22;19.93;;;15.37;;
15398;SDS011;7797;51.428;6.756;2024-03-07T09:07:50;20.53;;;14.07;;
15398;SDS011;7797;51.428;6.756;2024-03-07T09:10:19;23.30;;;14.80;;
15398;SDS011;7797;51.428;6.756;2024-03-07T09:12:46;21.77;;;14.03;;
15398;SDS011;7797;51.428;6.756;2024-03-07T09:15:16;21.70;;;13.73;;
15398;SDS011;7797;51.428;6.756;2024-03-07T09:17:44;22.57;;;13.97;;
15398;SDS011;7797;51.428;6.756;2024-03-07T09:20:12;21.87;;;14.80;;
15398;SDS011;7797;51.428;6.756;2024-03-07T09:22:46;22.70;;;14.27;;
15398;SDS011;7797;51.428;6.756;2024-03-07T09:25:17;18.03;;;12.93;;
15398;SDS011;7797;51.428;6.756;2024-03-07T09:27:46;18.10;;;12.33;;
15398;SDS011;7797;51.428;6.756;2024-03-07T09:30:13;18.43;;;12.30;;
15398;SDS011;7797;51.428;6.756;2024-03-07T09:32:46;19.60;;;11.93;;
15398;SDS011;7797;51.428;6.756;2024-03-07T09:35:13;16.83;;;11.83;;
15398;SDS011;7797;51.428;6.756;2024-03-07T09:37:41;18.50;;;11.47;;
15398;SDS011;7797;51.428;6.756;2024-03-07T09:40:09;28.67;;;12.57;;
15398;SDS011;7797;51.428;6.756;2024-03-07T09:42:44;19.07;;;11.53;;
15398;SDS011;7797;51.428;6.756;2024-03-07T09:45:16;16.17;;;11.43;;
15398;SDS011;7797;51.428;6.756;2024-03-07T09:47:47;16.90;;;11.67;;
15398;SDS011;7797;51.428;6.756;2024-03-07T09:50:19;21.17;;;11.27;;
15398;SDS011;7797;51.428;6.756;2024-03-07T09:52:50;15.87;;;11.07;;
15398;SDS011;7797;51.428;6.756;2024-03-07T09:55:21;14.77;;;11.40;;
15398;SDS011;7797;51.428;6.756;2024-03-07T09:57:53;20.27;;;11.97;;
15398;SDS011;7797;51.428;6.756;2024-03-07T10:00:23;20.10;;;12.20;;
15398;SDS011;7797;51.428;6.756;2024-03-07T10:02:59;22.20;;;12.80;;
15398;SDS011;7797;51.428;6.756;2024-03-07T10:05:29;18.33;;;12.13;;
15398;SDS011;7797;51.428;6.756;2024-03-07T10:07:58;21.47;;;12.73;;
15398;SDS011;7797;51.428;6.756;2024-03-07T10:10:25;17.93;;;12.40;;
15398;SDS011;7797;51.428;6.756;2024-03-07T10:12:53;24.93;;;13.60;;
15398;SDS011;7797;51.428;6.756;2024-03-07T10:15:20;19.23;;;13.20;;
15398;SDS011;7797;51.428;6.756;2024-03-07T10:17:48;19.27;;;12.33;;
15398;SDS011;7797;51.428;6.756;2024-03-07T10:20:21;17.67;;;12.87;;
15398;SDS011;7797;51.428;6.756;2024-03-07T10:22:49;16.97;;;11.70;;
15398;SDS011;7797;51.428;6.756;2024-03-07T10:25:17;15.47;;;11.70;;
15398;SDS011;7797;51.428;6.756;2024-03-07T10:27:46;18.87;;;12.37;;
15398;SDS011;7797;51.428;6.756;2024-03-07T10:30:15;27.03;;;11.57;;
15398;SDS011;7797;51.428;6.756;2024-03-07T10:32:48;19.33;;;12.80;;
15398;SDS011;7797;51.428;6.756;2024-03-07T10:35:25;16.23;;;11.30;;
15398;SDS011;7797;51.428;6.756;2024-03-07T10:37:53;18.33;;;11.67;;
15398;SDS011;7797;51.428;6.756;2024-03-07T10:40:20;18.37;;;12.77;;
15398;SDS011;7797;51.428;6.756;2024-03-07T10:42:49;15.93;;;12.03;;
15398;SDS011;7797;51.428;6.756;2024-03-07T10:45:18;17.47;;;11.90;;
15398;SDS011;7797;51.428;6.756;2024-03-07T10:47:49;18.13;;;12.67;;
15398;SDS011;7797;51.428;6.756;2024-03-07T10:50:24;15.93;;;12.10;;
15398;SDS011;7797;51.428;6.756;2024-03-07T10:52:58;17.50;;;11.83;;
15398;SDS011;7797;51.428;6.756;2024-03-07T10:55:40;20.07;;;12.20;;
15398;SDS011;7797;51.428;6.756;2024-03-07T11:01:23;16.90;;;12.10;;
15398;SDS011;7797;51.428;6.756;2024-03-07T11:03:52;25.50;;;12.70;;
15398;SDS011;7797;51.428;6.756;2024-03-07T11:06:24;14.57;;;11.50;;
15398;SDS011;7797;51.428;6.756;2024-03-07T11:08:51;14.30;;;11.20;;
15398;SDS011;7797;51.428;6.756;2024-03-07T11:11:18;16.97;;;11.33;;
15398;SDS011;7797;51.428;6.756;2024-03-07T11:13:45;15.90;;;11.80;;
15398;SDS011;7797;51.428;6.756;2024-03-07T11:16:13;17.87;;;11.47;;
15398;SDS011;7797;51.428;6.756;2024-03-07T11:18:41;14.80;;;10.60;;
15398;SDS011;7797;51.428;6.756;2024-03-07T11:21:31;16.77;;;11.07;;
15398;SDS011;7797;51.428;6.756;2024-03-07T11:24:06;15.33;;;11.03;;
15398;SDS011;7797;51.428;6.756;2024-03-07T11:26:33;18.70;;;12.20;;
15398;SDS011;7797;51.428;6.756;2024-03-07T11:29:00;18.60;;;11.87;;
15398;SDS011;7797;51.428;6.756;2024-03-07T11:31:27;20.23;;;11.33;;
15398;SDS011;7797;51.428;6.756;2024-03-07T11:34:15;15.67;;;10.83;;
15398;SDS011;7797;51.428;6.756;2024-03-07T11:36:45;25.60;;;11.93;;
15398;SDS011;7797;51.428;6.756;2024-03-07T11:42:18;18.60;;;10.93;;
15398;SDS011;7797;51.428;6.756;2024-03-07T11:44:45;16.83;;;12.57;;
15398;SDS011;7797;51.428;6.756;2024-03-07T11:47:13;15.67;;;11.43;;
15398;SDS011;7797;51.428;6.756;2024-03-07T11:49:40;15.13;;;11.43;;
15398;SDS011;7797;51.428;6.756;2024-03-07T11:52:06;15.73;;;11.10;;
15398;SDS011;7797;51.428;6.756;2024-03-07T11:54:39;14.77;;;10.27;;
15398;SDS011;7797;51.428;6.756;2024-03-07T11:59:41;15.00;;;10.77;;
15398;SDS011;7797;51.428;6.756;2024-03-07T12:02:14;18.13;;;10.50;;
15398;SDS011;7797;51.428;6.756;2024-03-07T12:04:42;13.23;;;10.80;;
15398;SDS011;7797;51.428;6.756;2024-03-07T12:07:09;13.10;;;11.17;;
15398;SDS011;7797;51.428;6.756;2024-03-07T12:09:39;14.97;;;10.90;;
15398;SDS011;7797;51.428;6.756;2024-03-07T12:12:06;14.77;;;11.40;;
15398;SDS011;7797;51.428;6.756;2024-03-07T12:14:33;13.70;;;10.50;;
15398;SDS011;7797;51.428;6.756;2024-03-07T12:17:01;14.60;;;11.23;;
15398;SDS011;7797;51.428;6.756;2024-03-07T12:19:33;13.10;;;10.60;;
15398;SDS011;7797;51.428;6.756;2024-03-07T12:22:00;14.30;;;10.83;;
15398;SDS011;7797;51.428;6.756;2024-03-07T12:24:29;30.67;;;12.90;;
15398;SDS011;7797;51.428;6.756;2024-03-07T12:27:05;13.93;;;10.47;;
15398;SDS011;7797;51.428;6.756;2024-03-07T12:29:33;22.60;;;11.27;;
15398;SDS011;7797;51.428;6.756;2024-03-07T12:32:00;15.20;;;11.70;;
15398;SDS011;7797;51.428;6.756;2024-03-07T12:34:27;21.40;;;14.20;;
15398;SDS011;7797;51.428;6.756;2024-03-07T12:36:56;21.40;;;13.57;;
15398;SDS011;7797;51.428;6.756;2024-03-07T12:39:27;17.57;;;12.60;;
15398;SDS011;7797;51.428;6.756;2024-03-07T12:41:59;30.37;;;11.97;;
15398;SDS011;7797;51.428;6.756;2024-03-07T12:44:27;26.23;;;12.73;;
15398;SDS011;7797;51.428;6.756;2024-03-07T12:46:54;17.73;;;11.23;;
15398;SDS011;7797;51.428;6.756;2024-03-07T12:49:22;16.27;;;10.93;;
15398;SDS011;7797;51.428;6.756;2024-03-07T12:51:53;15.13;;;10.77;;
15398;SDS011;7797;51.428;6.756;2024-03-07T12:54:20;13.07;;;10.10;;
15398;SDS011;7797;51.428;6.756;2024-03-07T12:56:48;16.97;;;12.37;;
15398;SDS011;7797;51.428;6.756;2024-03-07T12:59:18;18.33;;;12.30;;
15398;SDS011;7797;51.428;6.756;2024-03-07T13:01:47;16.33;;;12.33;;
15398;SDS011;7797;51.428;6.756;2024-03-07T13:04:14;16.07;;;11.87;;
15398;SDS011;7797;51.428;6.756;2024-03-07T13:06:41;17.93;;;12.80;;
15398;SDS011;7797;51.428;6.756;2024-03-07T13:09:13;13.23;;;10.80;;
15398;SDS011;7797;51.428;6.756;2024-03-07T13:11:40;17.53;;;11.37;;
15398;SDS011;7797;51.428;6.756;2024-03-07T13:14:08;14.30;;;11.33;;
15398;SDS011;7797;51.428;6.756;2024-03-07T13:16:36;14.30;;;10.57;;
15398;SDS011;7797;51.428;6.756;2024-03-07T13:19:03;14.37;;;11.33;;
15398;SDS011;7797;51.428;6.756;2024-03-07T13:21:31;14.70;;;11.40;;
15398;SDS011;7797;51.428;6.756;2024-03-07T13:23:58;18.87;;;12.43;;
15398;SDS011;7797;51.428;6.756;2024-03-07T13:26:26;15.00;;;11.73;;
15398;SDS011;7797;51.428;6.756;2024-03-07T13:28:56;15.50;;;11.30;;
15398;SDS011;7797;51.428;6.756;2024-03-07T13:31:30;14.53;;;11.73;;
15398;SDS011;7797;51.428;6.756;2024-03-07T13:33:57;14.50;;;11.37;;
15398;SDS011;7797;51.428;6.756;2024-03-07T13:36:24;15.10;;;11.73;;
15398;SDS011;7797;51.428;6.756;2024-03-07T13:38:51;15.10;;;10.67;;
15398;SDS011;7797;51.428;6.756;2024-03-07T13:41:22;15.40;;;11.00;;
15398;SDS011;7797;51.428;6.756;2024-03-07T13:43:49;14.50;;;10.47;;
15398;SDS011;7797;51.428;6.756;2024-03-07T13:46:16;13.93;;;10.87;;
15398;SDS011;7797;51.428;6.756;2024-03-07T13:48:44;13.20;;;10.73;;
15398;SDS011;7797;51.428;6.756;2024-03-07T13:51:11;14.03;;;10.77;;
15398;SDS011;7797;51.428;6.756;2024-03-07T13:53:41;13.83;;;10.43;;
15398;SDS011;7797;51.428;6.756;2024-03-07T13:59:14;13.77;;;10.17;;
15398;SDS011;7797;51.428;6.756;2024-03-07T14:08:14;11.60;;;9.53;;
15398;SDS011;7797;51.428;6.756;2024-03-07T14:13:38;12.57;;;9.87;;
15398;SDS011;7797;51.428;6.756;2024-03-07T14:16:18;12.47;;;10.17;;
15398;SDS011;7797;51.428;6.756;2024-03-07T14:19:30;12.07;;;9.13;;
15398;SDS011;7797;51.428;6.756;2024-03-07T14:22:07;11.93;;;9.00;;
15398;SDS011;7797;51.428;6.756;2024-03-07T14:27:18;11.27;;;7.90;;
15398;SDS011;7797;51.428;6.756;2024-03-07T14:33:11;10.40;;;7.63;;
15398;SDS011;7797;51.428;6.756;2024-03-07T14:35:58;10.47;;;7.37;;
15398;SDS011;7797;51.428;6.756;2024-03-07T14:41:06;12.07;;;7.40;;
15398;SDS011;7797;51.428;6.756;2024-03-07T14:43:37;8.73;;;7.10;;
15398;SDS011;7797;51.428;6.756;2024-03-07T14:46:05;7.87;;;6.87;;
15398;SDS011;7797;51.428;6.756;2024-03-07T14:48:32;10.57;;;7.13;;
15398;SDS011;7797;51.428;6.756;2024-03-07T14:51:01;9.80;;;6.87;;
15398;SDS011;7797;51.428;6.756;2024-03-07T14:53:32;9.33;;;6.93;;
15398;SDS011;7797;51.428;6.756;2024-03-07T14:55:59;8.83;;;7.40;;
15398;SDS011;7797;51.428;6.756;2024-03-07T14:58:25;8.10;;;6.77;;
15398;SDS011;7797;51.428;6.756;2024-03-07T15:00:53;9.00;;;6.80;;
15398;SDS011;7797;51.428;6.756;2024-03-07T15:03:23;10.77;;;6.73;;
15398;SDS011;7797;51.428;6.756;2024-03-07T15:05:52;9.43;;;6.30;;
15398;SDS011;7797;51.428;6.756;2024-03-07T15:08:19;9.43;;;6.70;;
15398;SDS011;7797;51.428;6.756;2024-03-07T15:10:54;7.80;;;6.20;;
15398;SDS011;7797;51.428;6.756;2024-03-07T15:13:54;7.37;;;6.20;;